, TX

(GMT )
Ingleside

Weather History for KTFP - June, 2013

Change the Weather History Date:

Monday, June 17, 2013

  Actual Average Record
Temperature  
Mean Temperature 87 °F -  
Max Temperature 92 °F - - ()
Min Temperature 82 °F - - ()
Cooling Degree Days 22    
Growing Degree Days 37 (Base 50)    
Moisture  
Dew Point 76 °F    
Average Humidity 73    
Maximum Humidity 86    
Minimum Humidity 58    
Precipitation  
Precipitation 0.00 in - - ()
Sea Level Pressure  
Sea Level Pressure 29.93 in    
Wind  
Wind Speed 14 mph (SSE)    
Max Wind Speed 23 mph    
Max Gust Speed 28 mph    
Visibility 10 miles    
Events      
Averages and records for this station are not official NWS values.
T = Trace of Precipitation, MM = Missing Value Source: NWS Daily Summary

Daily Weather History Graph

Daily Weather History Graph

Search for Another Location

Airport or City:

Astronomy

Jun. 17, 2013 Rise Set
Actual Time 6:32 AM CDT 8:27 PM CDT
Civil Twilight 6:05 AM CDT 8:53 PM CDT
Nautical Twilight 5:33 AM CDT 9:26 PM CDT
Astronomical Twilight 4:59 AM CDT 10:00 PM CDT
Moon 2:31 PM CDT (6/17) 1:41 AM CDT (6/17)
Length of Visible Light 14h 47m
Length of Day
13h 54m
First Quarter, 60% of the Moon is Illuminated
Jun 17
First Quarter
Jun 23
Full
Jun 29
Last Quarter
Jul 8
New
Jul 15
First Quarter

Hourly Weather History & Observations

Time (CDT) Temp. Heat Index Dew Point Humidity Pressure Visibility Wind Dir Wind Speed Gust Speed Precip Events Conditions
12:15 AM 82.9 °F 90.5 °F 75.6 °F 78% 29.95 in 10.0 mi SSE 13.8 mph 21.9 mph N/A   Scattered Clouds
12:35 AM 83.1 °F 91.0 °F 75.7 °F 78% 29.96 in 10.0 mi SSE 13.8 mph 20.7 mph N/A   Mostly Cloudy
12:55 AM 83.3 °F 91.4 °F 75.9 °F 78% 29.95 in 10.0 mi South 15.0 mph 19.6 mph N/A   Scattered Clouds
1:15 AM 83.1 °F 91.3 °F 75.9 °F 79% 29.96 in 10.0 mi South 15.0 mph 21.9 mph N/A   Scattered Clouds
1:35 AM 83.3 °F 91.8 °F 76.1 °F 79% 29.95 in 10.0 mi SSE 17.3 mph 23.0 mph N/A   Mostly Cloudy
1:55 AM 83.3 °F 91.8 °F 76.1 °F 79% 29.94 in 10.0 mi South 13.8 mph 19.6 mph N/A   Mostly Cloudy
2:15 AM 83.1 °F 91.6 °F 76.3 °F 80% 29.94 in 10.0 mi SSE 11.5 mph 16.1 mph N/A   Scattered Clouds
2:35 AM 83.1 °F 91.6 °F 76.3 °F 80% 29.94 in 10.0 mi SSE 10.4 mph 19.6 mph N/A   Scattered Clouds
2:55 AM 83.1 °F 91.6 °F 76.3 °F 80% 29.94 in 10.0 mi SSE 12.7 mph 21.9 mph N/A   Scattered Clouds
3:15 AM 83.3 °F 92.1 °F 76.6 °F 80% 29.94 in 10.0 mi South 12.7 mph 18.4 mph N/A   Mostly Cloudy
3:35 AM 83.3 °F 92.8 °F 77.4 °F 82% 29.94 in 10.0 mi South 12.7 mph 17.3 mph N/A   Mostly Cloudy
3:55 AM 82.9 °F 92.1 °F 77.2 °F 83% 29.93 in 10.0 mi South 11.5 mph 17.3 mph N/A   Scattered Clouds
4:15 AM 82.8 °F 92.2 °F 77.7 °F 85% 29.93 in 10.0 mi South 10.4 mph 16.1 mph N/A   Scattered Clouds
4:35 AM 82.9 °F 92.8 °F 77.9 °F 85% 29.92 in 10.0 mi South 11.5 mph 17.3 mph N/A   Scattered Clouds
4:55 AM 83.1 °F 92.9 °F 77.7 °F 84% 29.92 in 10.0 mi South 11.5 mph - N/A   Mostly Cloudy
5:15 AM 83.1 °F 92.9 °F 77.9 °F 84% 29.92 in 10.0 mi South 12.7 mph - N/A   Mostly Cloudy
5:35 AM 82.9 °F 92.8 °F 78.1 °F 85% 29.92 in 10.0 mi South 12.7 mph 17.3 mph N/A   Mostly Cloudy
5:55 AM 83.1 °F 92.9 °F 77.9 °F 84% 29.92 in 10.0 mi South 9.2 mph - N/A   Mostly Cloudy
6:15 AM 83.1 °F 93.3 °F 78.3 °F 85% 29.92 in 10.0 mi South 10.4 mph - N/A   Mostly Cloudy
6:35 AM 82.9 °F 93.1 °F 78.3 °F 86% 29.93 in 10.0 mi South 9.2 mph - N/A   Mostly Cloudy
6:55 AM 82.9 °F 92.8 °F 78.1 °F 85% 29.94 in 10.0 mi South 8.1 mph - N/A   Scattered Clouds
7:15 AM 83.1 °F 92.9 °F 77.9 °F 84% 29.95 in 10.0 mi South 10.4 mph 17.3 mph N/A   Scattered Clouds
7:35 AM 83.5 °F 93.6 °F 77.9 °F 83% 29.95 in 10.0 mi South 5.8 mph - N/A   Scattered Clouds
7:55 AM 84.0 °F 94.4 °F 77.5 °F 81% 29.96 in 10.0 mi South 11.5 mph 16.1 mph N/A   Scattered Clouds
8:15 AM 84.9 °F 95.3 °F 77.0 °F 77% 29.96 in 10.0 mi South 12.7 mph - N/A   Clear
8:35 AM 86.2 °F 97.4 °F 76.8 °F 74% 29.96 in 10.0 mi South 12.7 mph 23.0 mph N/A   Scattered Clouds
8:55 AM 86.4 °F 97.4 °F 76.8 °F 73% 29.96 in 10.0 mi South 15.0 mph 18.4 mph N/A   Scattered Clouds
9:15 AM 86.9 °F 97.8 °F 76.6 °F 71% 29.96 in 10.0 mi South 10.4 mph 18.4 mph N/A   Scattered Clouds
9:35 AM 88.0 °F 100.2 °F 77.2 °F 70% 29.96 in 10.0 mi SSE 15.0 mph 21.9 mph N/A   Mostly Cloudy
9:55 AM 88.7 °F 101.0 °F 77.0 °F 68% 29.97 in 10.0 mi South 13.8 mph 19.6 mph N/A   Mostly Cloudy
10:15 AM 88.2 °F 100.1 °F 76.8 °F 69% 29.97 in 10.0 mi South 15.0 mph 19.6 mph N/A   Mostly Cloudy
10:35 AM 88.2 °F 99.5 °F 76.3 °F 68% 29.97 in 10.0 mi South 15.0 mph 20.7 mph N/A   Overcast
10:55 AM 88.2 °F 99.5 °F 76.3 °F 68% 29.98 in 10.0 mi South 12.7 mph 18.4 mph N/A   Mostly Cloudy
11:15 AM 88.9 °F 100.3 °F 76.3 °F 66% 29.98 in 10.0 mi South 15.0 mph 19.6 mph N/A   Mostly Cloudy
11:35 AM 89.4 °F 101.1 °F 76.1 °F 65% 29.98 in 10.0 mi SSE 17.3 mph 20.7 mph N/A   Mostly Cloudy
11:55 AM 89.4 °F 101.1 °F 76.1 °F 65% 29.98 in 10.0 mi SSE 17.3 mph 21.9 mph N/A   Mostly Cloudy
12:15 PM 90.0 °F 101.3 °F 75.7 °F 63% 29.97 in 10.0 mi SSE 17.3 mph - N/A   Mostly Cloudy
12:35 PM 90.3 °F 101.0 °F 75.2 °F 61% 29.97 in 10.0 mi SE 16.1 mph 21.9 mph N/A   Mostly Cloudy
12:55 PM 91.0 °F 102.2 °F 75.2 °F 60% 29.97 in 10.0 mi SSE 16.1 mph 21.9 mph N/A   Scattered Clouds
1:15 PM 91.4 °F 102.5 °F 75.0 °F 59% 29.97 in 10.0 mi SSE 16.1 mph - N/A   Clear
1:35 PM 91.9 °F 103.2 °F 75.2 °F 58% 29.96 in 10.0 mi South 15.0 mph 20.7 mph N/A   Clear
1:55 PM 92.1 °F 105.0 °F 76.3 °F 60% 29.96 in 10.0 mi SE 15.0 mph 21.9 mph N/A   Clear
2:15 PM 91.6 °F 104.9 °F 77.0 °F 62% 29.96 in 10.0 mi SE 15.0 mph 23.0 mph N/A   Scattered Clouds
2:35 PM 91.4 °F 104.5 °F 76.8 °F 62% 29.94 in 10.0 mi SE 18.4 mph 24.2 mph N/A   Clear
2:55 PM 91.2 °F 104.6 °F 77.2 °F 63% 29.94 in 10.0 mi SE 19.6 mph 24.2 mph N/A   Clear
3:15 PM 91.2 °F 104.6 °F 77.2 °F 63% 29.93 in 10.0 mi SE 19.6 mph 25.3 mph N/A   Clear
3:35 PM 90.9 °F 104.3 °F 77.4 °F 64% 29.93 in 10.0 mi SSE 18.4 mph 24.2 mph N/A   Clear
3:55 PM 90.1 °F 103.7 °F 77.2 °F 66% 29.92 in 10.0 mi SE 20.7 mph 25.3 mph N/A   Clear
4:15 PM 90.3 °F 103.5 °F 77.0 °F 65% 29.92 in 10.0 mi SSE 21.9 mph - N/A   Clear
4:35 PM 89.8 °F 102.7 °F 77.2 °F 66% 29.91 in 10.0 mi SE 19.6 mph 25.3 mph N/A   Scattered Clouds
4:55 PM 89.2 °F 101.8 °F 77.2 °F 67% 29.90 in 10.0 mi SE 20.7 mph 26.5 mph N/A   Scattered Clouds
5:15 PM 88.7 °F 101.0 °F 76.8 °F 68% 29.89 in 10.0 mi SE 23.0 mph 27.6 mph N/A   Scattered Clouds
5:35 PM 88.5 °F 99.9 °F 76.5 °F 67% 29.88 in 10.0 mi SSE 20.7 mph - N/A   Scattered Clouds
5:55 PM 88.5 °F 99.9 °F 76.3 °F 67% 29.88 in 10.0 mi SE 21.9 mph 26.5 mph N/A   Clear
6:15 PM 88.2 °F 99.5 °F 76.3 °F 68% 29.87 in 10.0 mi SSE 18.4 mph 26.5 mph N/A   Clear
6:35 PM 87.6 °F 98.2 °F 76.1 °F 68% 29.87 in 10.0 mi SSE 19.6 mph 25.3 mph N/A   Clear
6:55 PM 87.1 °F 97.3 °F 75.7 °F 69% 29.87 in 10.0 mi SSE 19.6 mph 25.3 mph N/A   Clear
7:15 PM 86.4 °F 96.0 °F 75.7 °F 70% 29.87 in 10.0 mi SSE 19.6 mph 24.2 mph N/A   Clear
7:35 PM 85.8 °F 95.1 °F 75.4 °F 71% 29.88 in 10.0 mi SSE 18.4 mph 23.0 mph N/A   Clear
7:55 PM 85.1 °F 93.7 °F 75.2 °F 72% 29.88 in 10.0 mi SSE 16.1 mph 21.9 mph N/A   Clear
8:15 PM 84.4 °F 92.7 °F 75.2 °F 74% 29.88 in 10.0 mi SSE 18.4 mph - N/A   Scattered Clouds
8:35 PM 83.8 °F 91.8 °F 75.2 °F 75% 29.88 in 10.0 mi SSE 13.8 mph 19.6 mph N/A   Scattered Clouds
8:55 PM 83.7 °F 91.7 °F 75.2 °F 76% 29.89 in 10.0 mi SSE 13.8 mph 21.9 mph N/A   Scattered Clouds
9:15 PM 83.5 °F 91.2 °F 75.2 °F 76% 29.90 in 10.0 mi SSE 13.8 mph 19.6 mph N/A   Scattered Clouds
9:35 PM 83.5 °F 91.2 °F 75.4 °F 76% 29.90 in 10.0 mi SSE 16.1 mph 23.0 mph N/A   Scattered Clouds
9:55 PM 83.5 °F 91.2 °F 75.4 °F 76% 29.90 in 10.0 mi SSE 16.1 mph 21.9 mph N/A   Mostly Cloudy
10:15 PM 83.7 °F 91.7 °F 75.4 °F 76% 29.91 in 10.0 mi SSE 13.8 mph 19.6 mph N/A   Mostly Cloudy
10:35 PM 83.7 °F 92.0 °F 75.7 °F 77% 29.92 in 10.0 mi SSE 13.8 mph 21.9 mph N/A   Scattered Clouds
10:55 PM 83.7 °F 92.4 °F 76.3 °F 78% 29.92 in 10.0 mi SSE 15.0 mph 18.4 mph N/A   Mostly Cloudy
11:15 PM 83.7 °F 92.4 °F 76.3 °F 78% 29.93 in 10.0 mi SSE 15.0 mph 20.7 mph N/A   Mostly Cloudy
11:35 PM 83.5 °F 91.9 °F 75.9 °F 78% 29.94 in 10.0 mi SSE 15.0 mph 21.9 mph N/A   Mostly Cloudy
11:55 PM 83.5 °F 91.6 °F 75.6 °F 77% 29.95 in 10.0 mi SSE 15.0 mph 18.4 mph N/A   Mostly Cloudy